sensor_id;sensor_type;location;lat;lon;timestamp;temperature;humidity
7378;DHT22;3730;50.856;12.776;2023-11-19T07:31:24;7.60;1.00
7378;DHT22;3730;50.856;12.776;2023-11-19T07:33:50;7.40;1.00
7378;DHT22;3730;50.856;12.776;2023-11-19T07:38:42;7.60;1.00
7378;DHT22;3730;50.856;12.776;2023-11-19T07:41:08;7.60;1.00
7378;DHT22;3730;50.856;12.776;2023-11-19T07:43:39;8.10;1.00
7378;DHT22;3730;50.856;12.776;2023-11-19T07:48:33;7.70;1.00
7378;DHT22;3730;50.856;12.776;2023-11-19T07:51:00;7.70;1.00
7378;DHT22;3730;50.856;12.776;2023-11-19T07:53:26;7.70;1.00
7378;DHT22;3730;50.856;12.776;2023-11-19T07:55:52;7.60;1.00
7378;DHT22;3730;50.856;12.776;2023-11-19T08:00:43;7.50;1.00
7378;DHT22;3730;50.856;12.776;2023-11-19T08:03:09;7.90;1.00
7378;DHT22;3730;50.856;12.776;2023-11-19T08:05:35;7.90;1.00
7378;DHT22;3730;50.856;12.776;2023-11-19T08:12:54;7.90;1.00
7378;DHT22;3730;50.856;12.776;2023-11-19T08:15:19;7.90;1.00
7378;DHT22;3730;50.856;12.776;2023-11-19T08:17:45;7.90;1.00
7378;DHT22;3730;50.856;12.776;2023-11-19T08:20:11;8.10;1.00
7378;DHT22;3730;50.856;12.776;2023-11-19T08:22:37;8.00;1.00
7378;DHT22;3730;50.856;12.776;2023-11-19T08:25:07;8.20;1.00
7378;DHT22;3730;50.856;12.776;2023-11-19T08:27:33;8.10;1.00
7378;DHT22;3730;50.856;12.776;2023-11-19T08:29:59;8.20;1.00
7378;DHT22;3730;50.856;12.776;2023-11-19T08:32:25;8.10;1.00
7378;DHT22;3730;50.856;12.776;2023-11-19T08:34:51;8.20;1.00
7378;DHT22;3730;50.856;12.776;2023-11-19T08:37:16;8.30;1.00
7378;DHT22;3730;50.856;12.776;2023-11-19T08:39:47;8.20;1.00
7378;DHT22;3730;50.856;12.776;2023-11-19T08:42:13;8.30;1.00
7378;DHT22;3730;50.856;12.776;2023-11-19T08:44:39;8.20;1.00
7378;DHT22;3730;50.856;12.776;2023-11-19T08:47:08;8.60;1.00
7378;DHT22;3730;50.856;12.776;2023-11-19T08:49:34;8.30;1.00
7378;DHT22;3730;50.856;12.776;2023-11-19T08:52:00;8.60;1.00
7378;DHT22;3730;50.856;12.776;2023-11-19T08:54:26;8.60;1.00
7378;DHT22;3730;50.856;12.776;2023-11-19T08:56:52;8.80;1.00
7378;DHT22;3730;50.856;12.776;2023-11-19T08:59:18;8.60;1.00
7378;DHT22;3730;50.856;12.776;2023-11-19T09:01:44;8.70;1.00
7378;DHT22;3730;50.856;12.776;2023-11-19T09:04:10;8.60;1.00
7378;DHT22;3730;50.856;12.776;2023-11-19T09:06:36;8.60;1.00
7378;DHT22;3730;50.856;12.776;2023-11-19T09:09:02;8.70;1.00
7378;DHT22;3730;50.856;12.776;2023-11-19T09:11:29;8.60;1.00
7378;DHT22;3730;50.856;12.776;2023-11-19T09:13:54;9.10;1.00
7378;DHT22;3730;50.856;12.776;2023-11-19T09:16:20;8.80;1.00
7378;DHT22;3730;50.856;12.776;2023-11-19T09:18:46;9.00;1.00
7378;DHT22;3730;50.856;12.776;2023-11-19T09:21:11;9.30;1.00
7378;DHT22;3730;50.856;12.776;2023-11-19T09:23:37;8.80;1.00
7378;DHT22;3730;50.856;12.776;2023-11-19T09:26:05;8.80;1.00
7378;DHT22;3730;50.856;12.776;2023-11-19T09:28:31;9.10;1.00
7378;DHT22;3730;50.856;12.776;2023-11-19T09:35:50;9.10;1.00
7378;DHT22;3730;50.856;12.776;2023-11-19T09:38:16;9.20;1.00
7378;DHT22;3730;50.856;12.776;2023-11-19T09:40:42;9.20;1.00
7378;DHT22;3730;50.856;12.776;2023-11-19T09:43:08;9.20;1.00
7378;DHT22;3730;50.856;12.776;2023-11-19T09:45:50;9.10;1.00
7378;DHT22;3730;50.856;12.776;2023-11-19T09:48:19;9.10;1.00
7378;DHT22;3730;50.856;12.776;2023-11-19T09:50:48;9.20;1.00
7378;DHT22;3730;50.856;12.776;2023-11-19T09:55:42;9.20;1.00
7378;DHT22;3730;50.856;12.776;2023-11-19T09:58:08;9.10;1.00
7378;DHT22;3730;50.856;12.776;2023-11-19T10:00:34;9.40;1.00
7378;DHT22;3730;50.856;12.776;2023-11-19T10:03:00;9.20;1.00
7378;DHT22;3730;50.856;12.776;2023-11-19T10:05:26;9.20;1.00
7378;DHT22;3730;50.856;12.776;2023-11-19T10:07:52;9.20;1.00
7378;DHT22;3730;50.856;12.776;2023-11-19T10:10:18;9.10;1.00
7378;DHT22;3730;50.856;12.776;2023-11-19T10:12:47;9.30;1.00
7378;DHT22;3730;50.856;12.776;2023-11-19T10:15:24;9.40;1.00
7378;DHT22;3730;50.856;12.776;2023-11-19T10:17:50;9.10;1.00
7378;DHT22;3730;50.856;12.776;2023-11-19T10:20:16;9.20;1.00
7378;DHT22;3730;50.856;12.776;2023-11-19T10:25:29;9.20;1.00
7378;DHT22;3730;50.856;12.776;2023-11-19T10:27:56;10.30;1.00
7378;DHT22;3730;50.856;12.776;2023-11-19T10:30:26;9.50;1.00
7378;DHT22;3730;50.856;12.776;2023-11-19T10:35:28;9.50;1.00
7378;DHT22;3730;50.856;12.776;2023-11-19T10:37:54;9.40;1.00
7378;DHT22;3730;50.856;12.776;2023-11-19T10:40:19;9.50;1.00
7378;DHT22;3730;50.856;12.776;2023-11-19T10:42:45;9.60;1.00
7378;DHT22;3730;50.856;12.776;2023-11-19T10:45:23;9.90;1.00
7378;DHT22;3730;50.856;12.776;2023-11-19T10:47:51;9.50;1.00
7378;DHT22;3730;50.856;12.776;2023-11-19T10:50:17;9.40;1.00
7378;DHT22;3730;50.856;12.776;2023-11-19T11:14:54;10.30;1.00
7378;DHT22;3730;50.856;12.776;2023-11-19T11:17:24;10.30;1.00
7378;DHT22;3730;50.856;12.776;2023-11-19T11:19:51;10.40;1.00
7378;DHT22;3730;50.856;12.776;2023-11-19T12:28:15;11.30;99.90
7378;DHT22;3730;50.856;12.776;2023-11-19T12:30:45;11.20;1.00
7378;DHT22;3730;50.856;12.776;2023-11-19T12:33:13;11.40;1.00
7378;DHT22;3730;50.856;12.776;2023-11-19T12:35:46;11.20;1.00
7378;DHT22;3730;50.856;12.776;2023-11-19T12:38:19;11.30;1.00
7378;DHT22;3730;50.856;12.776;2023-11-19T12:41:03;11.30;1.00
7378;DHT22;3730;50.856;12.776;2023-11-19T12:43:29;11.40;1.00
7378;DHT22;3730;50.856;12.776;2023-11-19T12:45:55;11.20;1.00
7378;DHT22;3730;50.856;12.776;2023-11-19T12:48:20;11.40;1.00
7378;DHT22;3730;50.856;12.776;2023-11-19T12:50:57;11.40;1.00
7378;DHT22;3730;50.856;12.776;2023-11-19T12:53:24;11.30;1.00
7378;DHT22;3730;50.856;12.776;2023-11-19T12:55:51;11.40;1.00
7378;DHT22;3730;50.856;12.776;2023-11-19T12:58:37;11.50;1.00
7378;DHT22;3730;50.856;12.776;2023-11-19T13:01:08;11.40;99.90
7378;DHT22;3730;50.856;12.776;2023-11-19T13:03:36;11.30;99.90
7378;DHT22;3730;50.856;12.776;2023-11-19T13:08:43;11.50;1.00
7378;DHT22;3730;50.856;12.776;2023-11-19T13:11:10;11.40;1.00
7378;DHT22;3730;50.856;12.776;2023-11-19T13:16:21;11.20;1.00
7378;DHT22;3730;50.856;12.776;2023-11-19T13:18:47;11.30;99.90
7378;DHT22;3730;50.856;12.776;2023-11-19T13:21:12;11.10;99.90
7378;DHT22;3730;50.856;12.776;2023-11-19T13:23:38;10.90;99.90
7378;DHT22;3730;50.856;12.776;2023-11-19T13:28:31;11.00;99.90
7378;DHT22;3730;50.856;12.776;2023-11-19T13:30:56;11.30;99.90
7378;DHT22;3730;50.856;12.776;2023-11-19T13:33:23;11.30;99.90
7378;DHT22;3730;50.856;12.776;2023-11-19T13:35:49;11.00;97.60
7378;DHT22;3730;50.856;12.776;2023-11-19T13:38:14;11.40;88.30
7378;DHT22;3730;50.856;12.776;2023-11-19T13:40:40;11.20;72.00
7378;DHT22;3730;50.856;12.776;2023-11-19T13:43:05;11.20;1.00
7378;DHT22;3730;50.856;12.776;2023-11-19T13:50:23;11.00;1.00
7378;DHT22;3730;50.856;12.776;2023-11-19T13:52:49;10.90;1.00
7378;DHT22;3730;50.856;12.776;2023-11-19T13:55:15;10.90;24.40
7378;DHT22;3730;50.856;12.776;2023-11-19T13:57:41;10.70;41.10
7378;DHT22;3730;50.856;12.776;2023-11-19T14:00:11;10.90;76.60
7378;DHT22;3730;50.856;12.776;2023-11-19T14:02:42;10.70;95.90
7378;DHT22;3730;50.856;12.776;2023-11-19T14:05:09;10.80;99.90
7378;DHT22;3730;50.856;12.776;2023-11-19T14:07:36;10.80;99.90
7378;DHT22;3730;50.856;12.776;2023-11-19T14:10:02;10.80;99.90
7378;DHT22;3730;50.856;12.776;2023-11-19T14:14:54;10.60;99.90
7378;DHT22;3730;50.856;12.776;2023-11-19T14:17:20;10.60;99.90
7378;DHT22;3730;50.856;12.776;2023-11-19T14:19:46;10.70;99.90
7378;DHT22;3730;50.856;12.776;2023-11-19T14:22:11;10.60;99.90
7378;DHT22;3730;50.856;12.776;2023-11-19T14:24:37;10.50;99.90
7378;DHT22;3730;50.856;12.776;2023-11-19T14:27:03;10.40;99.90
7378;DHT22;3730;50.856;12.776;2023-11-19T14:29:29;10.40;99.90
7378;DHT22;3730;50.856;12.776;2023-11-19T14:31:57;10.30;99.90
7378;DHT22;3730;50.856;12.776;2023-11-19T14:34:24;10.40;99.90
7378;DHT22;3730;50.856;12.776;2023-11-19T14:36:51;10.50;99.90
7378;DHT22;3730;50.856;12.776;2023-11-19T14:44:10;10.30;1.00
7378;DHT22;3730;50.856;12.776;2023-11-19T14:46:36;10.10;1.00
7378;DHT22;3730;50.856;12.776;2023-11-19T14:49:02;10.00;1.00
7378;DHT22;3730;50.856;12.776;2023-11-19T14:51:29;10.10;1.00
7378;DHT22;3730;50.856;12.776;2023-11-19T14:53:55;10.20;1.00
7378;DHT22;3730;50.856;12.776;2023-11-19T14:56:20;10.20;1.00
7378;DHT22;3730;50.856;12.776;2023-11-19T14:58:47;10.40;1.00
7378;DHT22;3730;50.856;12.776;2023-11-19T15:01:13;10.20;1.00
7378;DHT22;3730;50.856;12.776;2023-11-19T15:03:39;9.90;1.00
7378;DHT22;3730;50.856;12.776;2023-11-19T15:10:58;10.20;1.00
7378;DHT22;3730;50.856;12.776;2023-11-19T15:13:24;10.10;1.00
7378;DHT22;3730;50.856;12.776;2023-11-19T15:15:50;10.00;1.00
7378;DHT22;3730;50.856;12.776;2023-11-19T15:18:15;10.00;1.00
7378;DHT22;3730;50.856;12.776;2023-11-19T15:20:42;9.90;1.00
7378;DHT22;3730;50.856;12.776;2023-11-19T15:28:04;10.20;1.00
7378;DHT22;3730;50.856;12.776;2023-11-19T15:30:30;10.10;1.00
7378;DHT22;3730;50.856;12.776;2023-11-19T15:32:55;9.90;1.00
7378;DHT22;3730;50.856;12.776;2023-11-19T15:35:21;10.10;1.00
7378;DHT22;3730;50.856;12.776;2023-11-19T15:37:46;9.90;1.00
7378;DHT22;3730;50.856;12.776;2023-11-19T15:40:12;9.90;99.90
7378;DHT22;3730;50.856;12.776;2023-11-19T15:42:39;10.00;99.90
7378;DHT22;3730;50.856;12.776;2023-11-19T15:45:06;10.00;99.90
7378;DHT22;3730;50.856;12.776;2023-11-19T16:31:35;9.40;1.00
7378;DHT22;3730;50.856;12.776;2023-11-19T16:36:27;10.10;1.00
7378;DHT22;3730;50.856;12.776;2023-11-19T16:38:53;9.40;1.00
7378;DHT22;3730;50.856;12.776;2023-11-19T16:41:19;9.80;1.00
7378;DHT22;3730;50.856;12.776;2023-11-19T16:43:46;9.80;1.00
7378;DHT22;3730;50.856;12.776;2023-11-19T16:46:14;9.60;1.00
7378;DHT22;3730;50.856;12.776;2023-11-19T16:51:12;9.70;1.00
7378;DHT22;3730;50.856;12.776;2023-11-19T16:53:45;9.80;1.00
7378;DHT22;3730;50.856;12.776;2023-11-19T16:56:12;9.70;1.00
7378;DHT22;3730;50.856;12.776;2023-11-19T16:58:38;9.90;1.00
7378;DHT22;3730;50.856;12.776;2023-11-19T17:01:04;9.60;1.00
7378;DHT22;3730;50.856;12.776;2023-11-19T17:05:55;9.60;1.00
7378;DHT22;3730;50.856;12.776;2023-11-19T17:08:22;9.70;1.00
7378;DHT22;3730;50.856;12.776;2023-11-19T17:10:47;9.70;1.00
7378;DHT22;3730;50.856;12.776;2023-11-19T17:13:14;9.70;1.00
7378;DHT22;3730;50.856;12.776;2023-11-19T17:15:40;9.60;1.00
7378;DHT22;3730;50.856;12.776;2023-11-19T17:23:02;9.60;1.00
7378;DHT22;3730;50.856;12.776;2023-11-19T17:25:30;9.60;1.00
7378;DHT22;3730;50.856;12.776;2023-11-19T17:27:56;9.60;1.00
7378;DHT22;3730;50.856;12.776;2023-11-19T17:30:21;9.70;1.00
7378;DHT22;3730;50.856;12.776;2023-11-19T17:32:48;9.50;1.00
7378;DHT22;3730;50.856;12.776;2023-11-19T17:37:39;9.50;1.00
7378;DHT22;3730;50.856;12.776;2023-11-19T17:42:34;9.70;1.00
7378;DHT22;3730;50.856;12.776;2023-11-19T17:45:00;9.50;1.00
7378;DHT22;3730;50.856;12.776;2023-11-19T17:47:26;10.00;1.00
7378;DHT22;3730;50.856;12.776;2023-11-19T17:49:52;9.80;1.00
7378;DHT22;3730;50.856;12.776;2023-11-19T17:52:18;9.70;1.00
7378;DHT22;3730;50.856;12.776;2023-11-19T17:54:45;9.40;1.00
7378;DHT22;3730;50.856;12.776;2023-11-19T17:57:10;9.60;1.00
7378;DHT22;3730;50.856;12.776;2023-11-19T17:59:38;9.50;1.00
7378;DHT22;3730;50.856;12.776;2023-11-19T18:02:04;9.70;1.00
7378;DHT22;3730;50.856;12.776;2023-11-19T18:04:29;9.60;1.00
7378;DHT22;3730;50.856;12.776;2023-11-19T18:06:55;9.70;1.00
7378;DHT22;3730;50.856;12.776;2023-11-19T18:09:20;9.70;1.00
7378;DHT22;3730;50.856;12.776;2023-11-19T18:11:46;9.50;1.00
7378;DHT22;3730;50.856;12.776;2023-11-19T18:14:13;9.50;1.00
7378;DHT22;3730;50.856;12.776;2023-11-19T18:16:38;9.60;1.00
7378;DHT22;3730;50.856;12.776;2023-11-19T18:19:05;9.60;3.00
7378;DHT22;3730;50.856;12.776;2023-11-19T18:21:32;9.50;1.30
7378;DHT22;3730;50.856;12.776;2023-11-19T18:23:58;9.50;1.00
7378;DHT22;3730;50.856;12.776;2023-11-19T18:26:24;9.50;1.80
7378;DHT22;3730;50.856;12.776;2023-11-19T18:28:50;9.40;1.00
7378;DHT22;3730;50.856;12.776;2023-11-19T18:33:41;9.30;1.00
7378;DHT22;3730;50.856;12.776;2023-11-19T18:36:08;9.50;1.00
7378;DHT22;3730;50.856;12.776;2023-11-19T18:38:33;9.70;1.00
7378;DHT22;3730;50.856;12.776;2023-11-19T18:41:02;9.60;1.00
7378;DHT22;3730;50.856;12.776;2023-11-19T18:43:28;9.60;1.00
7378;DHT22;3730;50.856;12.776;2023-11-19T18:45:53;9.80;1.00
7378;DHT22;3730;50.856;12.776;2023-11-19T18:48:19;9.60;1.00
7378;DHT22;3730;50.856;12.776;2023-11-19T18:50:45;10.00;1.00
7378;DHT22;3730;50.856;12.776;2023-11-19T18:53:11;9.70;1.00
7378;DHT22;3730;50.856;12.776;2023-11-19T18:55:37;9.70;28.70
7378;DHT22;3730;50.856;12.776;2023-11-19T18:58:02;9.50;99.90
7378;DHT22;3730;50.856;12.776;2023-11-19T19:00:28;9.40;99.90
7378;DHT22;3730;50.856;12.776;2023-11-19T19:02:54;9.60;99.90
7378;DHT22;3730;50.856;12.776;2023-11-19T19:05:19;9.70;99.90
7378;DHT22;3730;50.856;12.776;2023-11-19T19:07:45;9.50;1.00
7378;DHT22;3730;50.856;12.776;2023-11-19T19:10:11;9.50;1.00
7378;DHT22;3730;50.856;12.776;2023-11-19T19:12:42;9.40;1.00
7378;DHT22;3730;50.856;12.776;2023-11-19T19:15:11;9.40;1.00
7378;DHT22;3730;50.856;12.776;2023-11-19T19:17:38;10.80;1.00
7378;DHT22;3730;50.856;12.776;2023-11-19T19:20:04;9.70;1.00
7378;DHT22;3730;50.856;12.776;2023-11-19T19:22:30;9.50;1.00
7378;DHT22;3730;50.856;12.776;2023-11-19T19:24:56;9.60;1.00
7378;DHT22;3730;50.856;12.776;2023-11-19T19:27:22;9.30;1.00
7378;DHT22;3730;50.856;12.776;2023-11-19T19:29:47;9.60;1.00
7378;DHT22;3730;50.856;12.776;2023-11-19T19:32:13;9.60;1.00
7378;DHT22;3730;50.856;12.776;2023-11-19T19:34:39;9.40;1.00
7378;DHT22;3730;50.856;12.776;2023-11-19T19:39:31;9.50;1.00
7378;DHT22;3730;50.856;12.776;2023-11-19T19:44:24;9.50;1.00
7378;DHT22;3730;50.856;12.776;2023-11-19T19:46:51;9.40;1.00
7378;DHT22;3730;50.856;12.776;2023-11-19T19:54:09;9.50;1.00
7378;DHT22;3730;50.856;12.776;2023-11-19T19:56:35;9.50;1.00
7378;DHT22;3730;50.856;12.776;2023-11-19T19:59:01;9.50;7.50
7378;DHT22;3730;50.856;12.776;2023-11-19T20:06:19;9.40;1.00
7378;DHT22;3730;50.856;12.776;2023-11-19T20:08:47;9.30;1.00
7378;DHT22;3730;50.856;12.776;2023-11-19T20:11:15;9.70;1.00
